createdAt,value
2023-03-01T03:53:15.227Z,68.80
2023-03-01T03:55:46.527Z,68.30
2023-03-01T03:58:16.598Z,68.00
2023-03-01T04:01:10.611Z,68.20
2023-03-01T04:03:40.869Z,67.90
2023-03-01T04:06:10.989Z,67.90
2023-03-01T04:08:41.579Z,67.00
2023-03-01T04:11:31.916Z,67.00
2023-03-01T04:16:54.363Z,66.60
2023-03-01T04:19:38.294Z,66.80
2023-03-01T04:22:10.069Z,66.50
2023-03-01T04:24:47.500Z,65.70
2023-03-01T04:27:17.898Z,65.60
2023-03-01T04:29:47.696Z,65.50
2023-03-01T04:35:08.420Z,65.10
2023-03-01T04:37:38.377Z,64.20
2023-03-01T04:40:31.933Z,65.10
2023-03-01T04:43:01.337Z,64.70
2023-03-01T04:45:31.222Z,64.40
2023-03-01T04:48:01.259Z,64.40
2023-03-01T04:50:32.021Z,62.60
2023-03-01T04:53:09.518Z,63.20
2023-03-01T05:01:40.976Z,62.00
2023-03-01T05:07:00.888Z,59.80
2023-03-01T05:18:06.610Z,58.50
2023-03-01T05:23:47.485Z,57.50
2023-03-01T05:26:31.610Z,57.80
2023-03-01T05:28:49.925Z,58.60
2023-03-01T05:31:20.240Z,58.50
2023-03-01T05:33:50.276Z,58.40
2023-03-01T05:36:20.596Z,57.30
2023-03-01T05:38:52.483Z,56.40
2023-03-01T05:41:22.846Z,54.20
2023-03-01T05:43:52.880Z,56.90
2023-03-01T05:52:03.888Z,56.70
2023-03-01T05:54:34.058Z,55.70
2023-03-01T05:57:03.963Z,55.80
2023-03-01T05:59:57.411Z,55.00
2023-03-01T06:02:27.264Z,57.50
2023-03-01T06:04:57.255Z,55.70
2023-03-01T06:07:27.354Z,58.00
2023-03-01T06:09:57.143Z,55.50
2023-03-01T06:12:27.070Z,56.10
2023-03-01T06:14:58.667Z,56.20
2023-03-01T06:17:28.765Z,55.30
2023-03-01T06:19:59.821Z,54.40
2023-03-01T06:22:30.141Z,56.40
2023-03-01T06:24:59.977Z,55.70
2023-03-01T06:27:30.124Z,54.30
2023-03-01T06:30:00.390Z,51.10
2023-03-01T06:32:30.405Z,54.20
2023-03-01T06:35:00.656Z,51.90
2023-03-01T06:37:30.636Z,58.90
2023-03-01T06:40:00.556Z,49.10
2023-03-01T06:42:30.268Z,49.60
2023-03-01T06:45:00.185Z,51.20
2023-03-01T06:47:30.213Z,52.20
2023-03-01T06:50:05.338Z,48.40
2023-03-01T06:52:35.279Z,48.80
2023-03-01T06:55:05.420Z,51.20
2023-03-01T06:57:35.451Z,51.00
2023-03-01T07:00:07.130Z,48.10
2023-03-01T07:02:37.417Z,48.70
2023-03-01T07:05:08.023Z,52.40
2023-03-01T07:07:37.953Z,52.20
2023-03-01T07:10:10.332Z,52.20
2023-03-01T07:12:40.278Z,48.60
2023-03-01T07:15:11.640Z,48.20
2023-03-01T07:17:42.100Z,48.90
2023-03-01T07:20:12.801Z,50.00
2023-03-01T07:22:44.246Z,50.90
2023-03-01T07:25:14.848Z,51.10
2023-03-01T07:27:44.801Z,47.80
2023-03-01T07:30:15.132Z,48.80
2023-03-01T07:32:45.154Z,47.60
2023-03-01T07:35:15.184Z,48.10
2023-03-01T07:40:34.304Z,49.90
2023-03-01T07:43:04.977Z,49.30
2023-03-01T07:45:35.047Z,48.50
2023-03-01T07:48:05.587Z,47.50
2023-03-01T07:50:35.957Z,49.70
2023-03-01T07:53:06.745Z,48.80
2023-03-01T07:55:37.043Z,50.90
2023-03-01T07:58:06.939Z,50.20
2023-03-01T08:00:36.623Z,49.60
2023-03-01T08:03:06.839Z,50.90
2023-03-01T08:05:36.580Z,52.50
2023-03-01T08:08:07.470Z,50.30
2023-03-01T08:10:37.829Z,50.70
2023-03-01T08:13:15.779Z,49.80
2023-03-01T08:15:45.478Z,48.00
2023-03-01T08:18:15.512Z,50.10
2023-03-01T08:20:45.886Z,49.70
2023-03-01T08:23:19.812Z,49.90
2023-03-01T08:25:49.987Z,49.20
2023-03-01T08:28:20.324Z,50.80
2023-03-01T08:30:50.840Z,49.80
2023-03-01T08:33:22.518Z,49.80
2023-03-01T08:35:57.533Z,50.40
2023-03-01T08:38:27.667Z,49.40
2023-03-01T08:40:58.878Z,50.20
2023-03-01T08:43:28.900Z,49.00
2023-03-01T08:45:58.756Z,49.60
2023-03-01T08:48:30.210Z,50.40
2023-03-01T08:54:21.080Z,51.10
2023-03-01T08:56:51.667Z,47.50
2023-03-01T08:59:21.767Z,49.30
2023-03-01T09:01:51.850Z,49.20
2023-03-01T09:04:21.939Z,50.20
2023-03-01T09:06:52.118Z,50.00
2023-03-01T09:09:22.158Z,48.50
2023-03-01T09:11:53.005Z,50.00
2023-03-01T09:14:22.818Z,49.30
2023-03-01T09:16:53.147Z,49.20
2023-03-01T09:19:23.341Z,49.20
2023-03-01T09:21:58.185Z,47.90
2023-03-01T09:24:28.406Z,48.50
2023-03-01T09:26:58.626Z,50.30
2023-03-01T09:29:30.445Z,48.30
2023-03-01T09:32:00.661Z,47.90
2023-03-01T09:34:30.781Z,48.40
2023-03-01T09:37:00.971Z,49.60
2023-03-01T09:39:31.021Z,49.10
2023-03-01T09:42:06.576Z,48.80
2023-03-01T09:44:40.664Z,49.50
2023-03-01T09:47:12.106Z,50.50
2023-03-01T09:49:43.222Z,50.20
2023-03-01T09:52:17.663Z,50.40
2023-03-01T09:54:47.902Z,50.40
2023-03-01T09:57:30.825Z,51.40
2023-03-01T10:00:06.425Z,50.40
2023-03-01T10:02:54.831Z,50.70
2023-03-01T10:05:38.801Z,49.70
2023-03-01T10:08:15.988Z,49.70
2023-03-01T10:10:49.077Z,51.30
2023-03-01T10:13:35.442Z,50.20
2023-03-01T10:16:41.006Z,50.60
2023-03-01T10:19:12.193Z,50.80
2023-03-01T10:21:55.433Z,51.10
2023-03-01T10:24:26.902Z,51.70
2023-03-01T10:30:15.252Z,51.80
2023-03-01T10:32:46.976Z,51.10
2023-03-01T10:35:27.683Z,51.20
2023-03-01T10:38:21.605Z,51.60
2023-03-01T10:43:52.166Z,52.60
2023-03-01T10:46:32.480Z,52.10
2023-03-01T11:00:55.917Z,52.90
2023-03-01T11:03:36.249Z,53.10
2023-03-01T11:06:13.147Z,52.90
2023-03-01T11:08:44.509Z,53.30
2023-03-01T11:11:21.518Z,53.40
2023-03-01T11:14:25.829Z,53.70
2023-03-01T11:16:47.634Z,53.90
2023-03-01T11:19:18.964Z,54.20
2023-03-01T11:22:15.334Z,54.30
2023-03-01T11:28:08.266Z,54.60
2023-03-01T11:30:39.420Z,54.80
2023-03-01T11:33:20.507Z,54.90
2023-03-01T11:35:54.506Z,55.00
2023-03-01T11:38:28.142Z,55.30
2023-03-01T11:41:16.741Z,55.50
2023-03-01T11:43:49.745Z,55.60
2023-03-01T11:46:33.630Z,55.90
2023-03-01T11:49:11.494Z,55.80
2023-03-01T11:52:00.951Z,55.80
2023-03-01T11:54:49.013Z,56.10
2023-03-01T11:57:43.906Z,56.20
2023-03-01T12:00:44.277Z,56.30
2023-03-01T12:06:36.522Z,56.10
2023-03-01T12:09:11.976Z,56.20
2023-03-01T12:11:54.656Z,56.40
2023-03-01T12:14:38.574Z,56.40
2023-03-01T12:17:25.887Z,56.60
2023-03-01T12:19:57.070Z,56.60
2023-03-01T12:22:36.164Z,56.40
2023-03-01T12:25:34.197Z,56.20
2023-03-01T12:28:08.671Z,56.20
2023-03-01T12:33:39.924Z,56.10
2023-03-01T12:36:22.066Z,55.60
2023-03-01T12:39:14.109Z,55.40
2023-03-01T12:42:11.069Z,55.50
2023-03-01T12:44:45.042Z,55.90
2023-03-01T12:47:30.001Z,55.80
2023-03-01T12:50:03.794Z,56.00
2023-03-01T12:52:40.777Z,55.80
2023-03-01T12:55:12.853Z,55.40
2023-03-01T12:57:44.519Z,56.60
2023-03-01T13:00:33.907Z,55.90
2023-03-01T13:03:06.505Z,55.60
2023-03-01T13:05:49.709Z,56.00
2023-03-01T13:08:22.869Z,56.00
2023-03-01T13:10:56.869Z,55.90
2023-03-01T13:13:27.624Z,55.80
2023-03-01T13:15:58.134Z,55.70
2023-03-01T13:18:29.355Z,55.80
2023-03-01T13:21:01.869Z,55.90
2023-03-01T13:23:36.382Z,55.80
2023-03-01T13:26:17.915Z,55.80
2023-03-01T13:29:04.842Z,55.70
2023-03-01T13:31:36.224Z,56.00
2023-03-01T13:34:08.146Z,56.10
2023-03-01T13:36:39.288Z,56.10
2023-03-01T13:39:10.519Z,56.10
2023-03-01T13:41:49.759Z,56.30
2023-03-01T13:47:48.552Z,56.50
2023-03-01T13:50:36.652Z,56.70
2023-03-01T14:04:25.807Z,57.40
2023-03-01T14:06:56.991Z,57.60
2023-03-01T14:12:07.533Z,57.20
2023-03-01T14:17:52.153Z,58.20
2023-03-01T14:20:43.124Z,58.40
2023-03-01T14:23:18.191Z,58.90
2023-03-01T14:25:55.612Z,59.30
2023-03-01T14:28:49.434Z,60.10
2023-03-01T14:36:56.135Z,62.20
2023-03-01T14:39:38.460Z,62.40
2023-03-01T14:42:15.558Z,62.70
2023-03-01T14:47:44.485Z,63.00
2023-03-01T14:50:24.807Z,63.10
2023-03-01T14:52:57.974Z,64.00
2023-03-01T14:55:44.799Z,65.20
2023-03-01T14:58:11.943Z,65.70
2023-03-01T15:00:42.546Z,66.20
2023-03-01T15:06:12.534Z,66.20
2023-03-01T15:08:44.724Z,67.20
2023-03-01T15:11:23.758Z,66.70
2023-03-01T15:13:56.238Z,66.90
2023-03-01T15:16:33.676Z,66.80
2023-03-01T15:21:17.804Z,67.20
2023-03-01T15:24:40.603Z,67.00
2023-03-01T15:33:45.212Z,67.10
2023-03-01T15:36:28.318Z,67.40
2023-03-01T15:39:33.548Z,67.70
2023-03-01T15:42:07.287Z,67.80
2023-03-01T15:44:44.083Z,68.10
2023-03-01T15:47:13.012Z,67.70
2023-03-01T15:50:06.888Z,68.00
2023-03-01T15:52:38.933Z,67.70
2023-03-01T15:55:10.225Z,67.70
2023-03-01T15:57:40.217Z,68.10
2023-03-01T16:00:17.199Z,67.80
2023-03-01T16:02:48.809Z,67.80
2023-03-01T16:05:53.835Z,67.60
2023-03-01T16:08:33.889Z,67.90
2023-03-01T16:11:24.902Z,67.50
2023-03-01T16:13:56.784Z,66.90
2023-03-01T16:16:50.782Z,66.50
2023-03-01T16:22:09.700Z,65.90
2023-03-01T16:24:39.633Z,65.50
2023-03-01T16:27:09.391Z,65.30
2023-03-01T16:29:40.451Z,64.90
2023-03-01T16:32:12.353Z,64.80
2023-03-01T16:34:51.919Z,65.00
2023-03-01T16:37:58.696Z,65.10
2023-03-01T16:40:29.861Z,65.20
2023-03-01T16:43:01.326Z,65.60
2023-03-01T16:45:41.506Z,65.50
2023-03-01T16:48:11.498Z,65.50
2023-03-01T16:50:41.522Z,65.90
2023-03-01T16:53:11.675Z,65.70
2023-03-01T16:55:42.800Z,66.10
2023-03-01T16:58:14.281Z,66.00
2023-03-01T17:00:44.165Z,66.30
2023-03-01T17:03:39.393Z,67.00
2023-03-01T17:06:10.366Z,67.20
2023-03-01T17:08:40.856Z,67.70
2023-03-01T17:11:14.916Z,68.00
2023-03-01T17:13:50.978Z,68.00
2023-03-01T17:16:21.849Z,68.40
2023-03-01T17:18:54.606Z,67.70
2023-03-01T17:21:24.565Z,68.50
2023-03-01T17:23:55.967Z,68.40
2023-03-01T17:26:45.185Z,68.60
2023-03-01T17:29:19.361Z,68.30
2023-03-01T17:31:49.380Z,68.50
2023-03-01T17:34:22.110Z,68.60
2023-03-01T17:36:53.181Z,68.60
2023-03-01T17:39:31.574Z,69.00
2023-03-01T17:42:01.694Z,69.00
2023-03-01T17:44:31.583Z,69.10
2023-03-01T17:47:01.544Z,69.30
2023-03-01T17:49:31.438Z,68.60
2023-03-01T17:52:03.102Z,69.40
2023-03-01T17:54:34.350Z,69.70
2023-03-01T17:57:07.079Z,70.10
2023-03-01T17:59:38.232Z,77.70
2023-03-01T18:02:08.204Z,73.30
2023-03-01T18:04:38.276Z,72.80
2023-03-01T18:07:15.338Z,71.10
2023-03-01T18:10:09.237Z,70.70
2023-03-01T18:13:01.514Z,71.10
2023-03-01T18:15:31.352Z,71.60
2023-03-01T18:18:01.211Z,70.90
2023-03-01T18:20:38.940Z,71.50
2023-03-01T18:23:09.626Z,71.30
2023-03-01T18:25:40.688Z,71.00
2023-03-01T18:28:10.562Z,71.90
2023-03-01T18:30:40.419Z,71.80
2023-03-01T18:33:10.216Z,71.90
2023-03-01T18:38:49.736Z,72.00
2023-03-01T18:41:19.755Z,72.10
2023-03-01T18:43:49.458Z,72.50
2023-03-01T18:46:23.690Z,72.40
2023-03-01T18:48:54.372Z,73.00
2023-03-01T18:51:25.440Z,73.00
2023-03-01T18:53:55.345Z,73.10
2023-03-01T18:56:25.088Z,73.00
2023-03-01T18:58:57.540Z,74.00
2023-03-01T19:01:55.802Z,74.50
2023-03-01T19:04:25.604Z,74.30
2023-03-01T19:06:56.903Z,74.60
2023-03-01T19:09:26.772Z,74.20
2023-03-01T19:11:57.875Z,74.60
2023-03-01T19:14:30.811Z,74.60
2023-03-01T19:17:18.982Z,74.60
2023-03-01T19:19:48.759Z,74.90
2023-03-01T19:22:53.342Z,74.60
2023-03-01T19:25:23.338Z,74.60
2023-03-01T19:27:58.855Z,74.70
2023-03-01T19:30:28.777Z,75.00
2023-03-01T19:33:05.904Z,75.10
2023-03-01T19:35:39.003Z,75.00
2023-03-01T19:38:15.006Z,75.60
2023-03-01T19:41:11.091Z,75.20
2023-03-01T19:44:10.193Z,75.40
2023-03-01T19:46:23.970Z,75.60
2023-03-01T19:49:06.551Z,75.60
2023-03-01T19:54:35.218Z,76.60
2023-03-01T19:57:38.423Z,76.70
2023-03-01T20:00:02.658Z,76.90
2023-03-01T20:02:32.448Z,76.60
2023-03-01T20:05:08.259Z,76.80
2023-03-01T20:07:40.958Z,77.10
2023-03-01T20:10:11.436Z,77.40
2023-03-01T20:12:41.176Z,77.50
2023-03-01T20:15:11.604Z,77.70
2023-03-01T20:17:41.509Z,78.00
2023-03-01T20:20:11.936Z,78.10
2023-03-01T20:22:41.831Z,78.00
2023-03-01T20:25:11.913Z,78.30
2023-03-01T20:27:41.681Z,78.40
2023-03-01T20:30:12.087Z,78.30
2023-03-01T20:32:42.125Z,78.80
2023-03-01T20:35:12.456Z,79.30
2023-03-01T20:37:42.362Z,79.10
2023-03-01T20:40:13.334Z,79.70
2023-03-01T20:42:43.257Z,79.70
2023-03-01T20:45:13.470Z,79.80
2023-03-01T20:47:43.274Z,79.80
2023-03-01T20:50:13.889Z,79.70
2023-03-01T20:52:47.721Z,79.80
2023-03-01T20:55:15.356Z,80.90
2023-03-01T20:57:45.070Z,80.00
2023-03-01T21:00:15.393Z,79.60
2023-03-01T21:02:45.240Z,79.90
2023-03-01T21:05:14.999Z,80.10
2023-03-01T21:07:44.729Z,79.80
2023-03-01T21:10:16.777Z,80.00
2023-03-01T21:12:46.581Z,79.70
2023-03-01T21:15:28.393Z,80.10
2023-03-01T21:17:50.924Z,80.30
2023-03-01T21:20:21.359Z,80.60
2023-03-01T21:22:51.287Z,80.20
2023-03-01T21:25:21.026Z,80.50
2023-03-01T21:27:50.871Z,80.30
2023-03-01T21:30:20.835Z,79.90
2023-03-01T21:32:50.723Z,80.10
2023-03-01T21:35:20.520Z,80.30
2023-03-01T21:37:50.392Z,80.20
2023-03-01T21:40:20.299Z,80.60
2023-03-01T21:42:50.625Z,80.50
2023-03-01T21:45:20.526Z,80.90
2023-03-01T21:47:50.236Z,80.70
2023-03-01T21:50:20.410Z,80.70
2023-03-01T21:52:50.098Z,80.40
2023-03-01T21:55:20.055Z,80.70
2023-03-01T21:57:49.791Z,80.80
2023-03-01T22:00:21.346Z,80.70
2023-03-01T22:02:51.208Z,81.10
2023-03-01T22:05:21.176Z,81.00
2023-03-01T22:07:51.036Z,81.00
2023-03-01T22:10:22.135Z,81.40
2023-03-01T22:12:51.972Z,81.50
2023-03-01T22:15:21.874Z,81.60
2023-03-01T22:17:54.512Z,81.40
2023-03-01T22:20:24.282Z,81.70
2023-03-01T22:22:54.090Z,81.60
2023-03-01T22:25:24.068Z,82.10
2023-03-01T22:27:53.966Z,81.80
2023-03-01T22:30:23.786Z,82.10
2023-03-01T22:32:53.773Z,81.90
2023-03-01T22:35:23.544Z,82.30
2023-03-01T22:37:54.440Z,82.30
2023-03-01T22:40:24.188Z,82.60
2023-03-01T22:42:55.557Z,82.50
2023-03-01T22:45:25.402Z,82.60
2023-03-01T22:48:07.809Z,82.70
2023-03-01T22:50:37.607Z,82.50
2023-03-01T22:53:07.593Z,82.80
2023-03-01T22:55:37.404Z,83.10
2023-03-01T22:58:07.217Z,83.30
2023-03-01T23:00:37.079Z,83.40
2023-03-01T23:03:07.064Z,83.20
2023-03-01T23:05:37.359Z,83.60
2023-03-01T23:08:07.393Z,83.30
2023-03-01T23:10:37.126Z,83.30
2023-03-01T23:13:06.891Z,83.00
2023-03-01T23:15:36.690Z,83.90
2023-03-01T23:18:06.535Z,83.50
2023-03-01T23:20:37.705Z,83.70
2023-03-01T23:23:07.533Z,83.60
2023-03-01T23:25:37.472Z,83.70
2023-03-01T23:28:07.272Z,83.80
2023-03-01T23:30:37.056Z,83.70
2023-03-01T23:33:06.987Z,83.80
2023-03-01T23:35:37.941Z,83.50
2023-03-01T23:38:07.760Z,83.60
2023-03-01T23:40:38.759Z,83.80
2023-03-01T23:43:08.458Z,83.90
2023-03-01T23:45:44.650Z,83.90
2023-03-01T23:48:17.241Z,83.80
2023-03-01T23:50:46.938Z,83.80
2023-03-01T23:53:18.226Z,84.20
2023-03-01T23:55:55.510Z,84.10
2023-03-01T23:58:38.974Z,84.60
